Time;durP1;ratioP1;P1;durP2;ratioP2;P2;SDS_P1;SDS_P2;PMS_P1;PMS_P2;Temp;Humidity;BMP_temperature;BMP_pressure;BME280_temperature;BME280_humidity;BME280_pressure;Samples;Min_cycle;Max_cycle;Signal;HPM_P1;HPM_P2
2021/04/19 00:01:32;;;;;;;11.45;9.05;;;8.20;99.90;;;7.48;76.21;100676.06;5064441;28;20136;-47
2021/04/19 00:03:58;;;;;;;11.60;8.38;;;8.10;99.90;;;7.50;76.12;100674.19;5064686;28;20351;-41
2021/04/19 00:06:25;;;;;;;13.18;8.55;;;8.10;99.90;;;7.50;76.07;100673.34;5065713;28;20446;-44
2021/04/19 00:08:51;;;;;;;9.95;7.75;;;8.10;99.90;;;7.52;76.71;100671.47;5063342;28;20515;-43
2021/04/19 00:11:17;;;;;;;10.63;8.02;;;8.10;99.90;;;7.48;75.95;100665.69;5064867;28;20346;-43
2021/04/19 00:13:43;;;;;;;12.68;8.23;;;8.10;99.90;;;7.46;76.44;100670.19;5066100;28;20037;-44
2021/04/19 00:16:09;;;;;;;11.23;8.52;;;8.00;99.90;;;7.44;76.20;100664.28;5064481;28;20137;-41
2021/04/19 00:18:35;;;;;;;14.10;8.27;;;8.00;99.90;;;7.42;75.92;100663.56;5062881;28;20365;-44
2021/04/19 00:21:02;;;;;;;12.98;8.50;;;8.00;99.90;;;7.42;76.58;100666.16;5065041;28;20146;-47
2021/04/19 00:23:28;;;;;;;10.55;7.60;;;8.00;99.90;;;7.40;76.69;100662.03;5062803;28;20404;-48
2021/04/19 00:25:54;;;;;;;13.90;8.27;;;8.00;99.90;;;7.36;76.84;100661.47;5065549;28;20066;-44
2021/04/19 00:28:20;;;;;;;15.32;8.27;;;7.90;99.90;;;7.33;76.09;100652.16;5064345;28;20040;-44
2021/04/19 00:30:46;;;;;;;10.93;7.80;;;7.90;99.90;;;7.29;76.32;100649.91;5064727;28;20043;-44
2021/04/19 00:33:12;;;;;;;11.82;7.72;;;7.90;99.90;;;7.32;76.83;100649.69;5064323;28;20397;-44
2021/04/19 00:35:38;;;;;;;12.35;7.45;;;7.90;99.90;;;7.29;76.86;100650.75;5062303;28;20048;-46
2021/04/19 00:38:05;;;;;;;11.45;8.18;;;7.90;99.90;;;7.24;76.57;100654.63;5064969;28;20029;-47
2021/04/19 00:40:32;;;;;;;10.77;7.93;;;7.80;99.90;;;7.21;76.48;100652.28;5063990;28;20036;-45
2021/04/19 00:42:58;;;;;;;11.82;8.35;;;7.80;99.90;;;7.20;77.30;100643.66;5063890;28;20517;-46
2021/04/19 00:45:24;;;;;;;11.75;8.27;;;7.80;99.90;;;7.15;77.38;100643.19;5047394;28;20480;-43
2021/04/19 00:47:50;;;;;;;12.32;8.77;;;7.70;99.90;;;7.13;77.11;100644.25;5064609;28;20052;-47
2021/04/19 00:50:25;;;;;;;10.93;8.60;;;7.70;99.90;;;7.13;77.44;100644.25;5046743;28;20029;-47
2021/04/19 00:52:52;;;;;;;11.23;8.27;;;7.70;99.90;;;7.08;77.60;100638.63;5067040;28;20595;-44
2021/04/19 00:55:18;;;;;;;14.50;9.10;;;7.70;99.90;;;7.08;77.69;100641.22;5067554;28;20384;-44
2021/04/19 00:57:45;;;;;;;10.95;7.60;;;7.70;99.90;;;7.05;78.43;100644.88;5068511;28;20425;-46
2021/04/19 01:00:26;;;;;;;11.98;8.88;;;7.60;99.90;;;7.03;79.00;100638.97;5066686;28;20210;-46
2021/04/19 01:02:52;;;;;;;11.55;9.02;;;7.60;99.90;;;6.98;77.55;100628.16;5067652;28;20036;-40
2021/04/19 01:05:39;;;;;;;10.88;7.93;;;7.60;99.90;;;6.93;78.26;100633.66;5067607;28;20039;-46
2021/04/19 01:08:09;;;;;;;10.80;7.95;;;7.50;99.90;;;6.91;77.65;100634.72;5066975;28;20087;-45
2021/04/19 01:10:36;;;;;;;9.75;8.02;;;7.50;99.90;;;6.89;77.72;100624.47;5065112;28;20066;-43
2021/04/19 01:13:04;;;;;;;12.25;8.57;;;7.40;99.90;;;6.90;77.25;100628.72;5070278;28;20075;-45
2021/04/19 01:15:31;;;;;;;10.73;7.68;;;7.40;99.90;;;6.88;76.86;100624.59;5069406;28;20095;-44
2021/04/19 01:17:57;;;;;;;11.70;7.97;;;7.40;99.90;;;6.86;76.82;100622.13;5065499;28;20124;-43
2021/04/19 01:20:26;;;;;;;12.30;8.68;;;7.40;99.90;;;6.90;77.19;100633.91;5067583;28;20131;-46
2021/04/19 01:22:53;;;;;;;10.70;8.43;;;7.40;99.90;;;6.87;77.38;100623.78;5066274;28;20101;-42
2021/04/19 01:25:23;;;;;;;9.55;7.95;;;7.40;99.90;;;6.84;77.26;100623.19;5067905;28;20085;-43
2021/04/19 01:27:51;;;;;;;11.40;8.48;;;7.40;99.90;;;6.82;77.54;100631.06;5066213;28;20084;-45
2021/04/19 01:30:19;;;;;;;11.55;7.75;;;7.40;99.90;;;6.78;77.41;100628.81;5066168;28;20025;-44
2021/04/19 01:32:46;;;;;;;10.10;7.75;;;7.40;99.90;;;6.73;77.99;100628.34;5066777;28;20064;-43
2021/04/19 01:35:14;;;;;;;11.35;7.95;;;7.30;99.90;;;6.66;77.77;100630.56;5066351;28;20036;-42
2021/04/19 01:37:40;;;;;;;13.30;8.73;;;7.20;99.90;;;6.65;77.48;100631.50;5067743;28;20083;-45
2021/04/19 01:40:10;;;;;;;9.98;7.03;;;7.20;99.90;;;6.62;78.13;100623.97;5064200;28;20029;-46
2021/04/19 01:42:36;;;;;;;11.27;8.02;;;7.20;99.90;;;6.59;77.65;100626.81;5066598;28;20052;-44
2021/04/19 01:45:05;;;;;;;10.43;7.90;;;7.10;99.90;;;6.53;78.94;100624.69;5067854;28;20553;-43
2021/04/19 01:47:31;;;;;;;12.10;8.48;;;7.10;99.90;;;6.50;78.46;100630.91;5066049;28;20028;-42
2021/04/19 01:49:57;;;;;;;11.80;8.07;;;7.10;99.90;;;6.48;78.15;100626.78;5066438;28;20040;-46
2021/04/19 01:52:23;;;;;;;10.73;7.97;;;7.10;99.90;;;6.47;78.64;100625.13;5045508;28;20037;-46
2021/04/19 01:54:50;;;;;;;10.88;7.75;;;7.00;99.90;;;6.46;78.49;100623.50;5067251;28;20041;-42
2021/04/19 01:57:16;;;;;;;13.70;8.68;;;7.00;99.90;;;6.48;78.17;100619.03;5066207;28;20028;-43
2021/04/19 01:59:43;;;;;;;10.60;8.45;;;7.00;99.90;;;6.44;78.30;100615.84;5064350;28;20042;-45
2021/04/19 02:02:22;;;;;;;14.60;8.18;;;7.00;99.90;;;6.41;78.76;100620.41;5061289;28;20031;-44
2021/04/19 02:05:24;;;;;;;15.73;8.80;;;7.00;99.90;;;6.37;80.12;100619.00;5048425;28;20543;-42
2021/04/19 02:08:02;;;;;;;13.10;8.93;;;6.90;99.90;;;6.32;79.13;100614.16;5062530;28;20430;-46
2021/04/19 02:11:06;;;;;;;11.10;8.05;;;6.90;99.90;;;6.28;80.25;100621.31;5046245;28;20036;-43
2021/04/19 02:13:43;;;;;;;12.50;9.35;;;6.80;99.90;;;6.18;78.98;100612.56;5065798;28;20040;-43
2021/04/19 02:16:30;;;;;;;12.48;8.07;;;6.80;99.90;;;6.08;80.24;100615.97;5065470;28;20064;-45
2021/04/19 02:19:06;;;;;;;14.82;9.43;;;6.70;99.90;;;5.95;80.19;100614.28;5051307;28;20028;-41
2021/04/19 02:22:15;;;;;;;12.35;8.85;;;6.60;99.90;;;6.02;81.33;100608.66;5049801;28;20151;-50
2021/04/19 02:24:47;;;;;;;14.68;9.45;;;6.60;99.90;;;6.01;79.56;100607.00;5057352;28;20048;-42
2021/04/19 02:27:30;;;;;;;12.82;8.82;;;6.60;99.90;;;6.00;80.09;100608.78;5049298;28;20182;-43
2021/04/19 02:29:59;;;;;;;12.23;9.05;;;6.60;99.90;;;5.96;80.13;100609.94;5046976;28;20068;-41
2021/04/19 02:32:34;;;;;;;14.25;9.30;;;6.50;99.90;;;5.93;80.11;100602.38;5047610;28;20162;-43
2021/04/19 02:35:07;;;;;;;15.38;9.20;;;6.50;99.90;;;5.90;80.80;100600.84;5064919;28;20040;-42
2021/04/19 02:37:35;;;;;;;15.45;10.43;;;6.50;99.90;;;5.88;80.24;100607.84;5048837;28;20041;-41
2021/04/19 02:40:04;;;;;;;16.10;10.30;;;6.50;99.90;;;5.86;80.92;100598.56;5064686;28;20611;-43
2021/04/19 02:42:39;;;;;;;14.27;9.90;;;6.40;99.90;;;5.85;81.12;100602.91;5064020;28;20126;-42
2021/04/19 02:45:09;;;;;;;13.20;10.20;;;6.40;99.90;;;5.80;80.64;100599.81;5047045;28;20044;-46
2021/04/19 02:47:36;;;;;;;13.82;9.48;;;6.30;99.90;;;5.71;81.04;100597.06;5064272;28;20185;-43
2021/04/19 02:50:06;;;;;;;16.15;9.25;;;6.30;99.90;;;5.72;81.47;100598.72;5047601;28;20060;-41
2021/04/19 02:52:35;;;;;;;13.80;9.63;;;6.30;99.90;;;5.81;81.22;100593.72;5065658;28;20040;-44
2021/04/19 02:55:03;;;;;;;15.48;9.80;;;6.30;99.90;;;5.81;80.74;100598.91;5048041;28;20059;-44
2021/04/19 02:57:38;;;;;;;13.95;8.73;;;6.30;99.90;;;5.77;81.35;100594.88;5047666;28;20430;-43
2021/04/19 03:00:05;;;;;;;11.48;8.75;;;6.40;99.90;;;5.78;80.91;100591.34;5048514;28;20032;-48
2021/04/19 03:02:33;;;;;;;14.45;9.48;;;6.30;99.90;;;5.82;80.41;100591.97;5062286;28;20040;-44
2021/04/19 03:05:01;;;;;;;16.23;10.95;;;6.30;99.90;;;5.85;80.61;100594.31;5065500;28;20068;-40
2021/04/19 03:07:37;;;;;;;15.07;10.43;;;6.40;99.90;;;5.88;80.34;100589.75;5063608;28;20039;-41
2021/04/19 03:10:11;;;;;;;14.45;9.98;;;6.40;99.90;;;5.85;80.47;100587.41;5065434;28;20020;-43
2021/04/19 03:12:42;;;;;;;15.57;10.73;;;6.40;99.90;;;5.74;80.68;100586.50;5062292;28;20041;-40
2021/04/19 03:15:14;;;;;;;15.00;9.75;;;6.30;99.90;;;5.64;81.12;100589.78;5047497;28;20167;-43
2021/04/19 03:17:41;;;;;;;15.13;9.48;;;6.20;99.90;;;5.53;81.19;100587.13;5062765;28;20101;-43
2021/04/19 03:20:31;;;;;;;16.40;10.15;;;6.20;99.90;;;5.47;81.66;100586.75;5048371;28;20036;-44
2021/04/19 03:22:57;;;;;;;13.15;8.23;;;6.10;99.90;;;5.39;81.92;100584.69;5049108;28;20075;-43
2021/04/19 03:25:27;;;;;;;14.35;9.85;;;6.00;99.90;;;5.33;82.00;100578.19;5063882;28;20033;-41
2021/04/19 03:27:57;;;;;;;13.60;9.73;;;5.90;99.90;;;5.30;82.15;100586.16;5047419;28;20047;-45
2021/04/19 03:30:24;;;;;;;13.80;8.77;;;5.90;99.90;;;5.26;82.06;100589.06;5362243;22;20063;-42
2021/04/19 03:32:57;;;;;;;12.80;8.85;;;5.90;99.90;;;5.21;82.67;100586.81;5075535;28;20491;-43
2021/04/19 03:35:32;;;;;;;13.65;7.93;;;5.80;99.90;;;5.31;82.05;100581.81;5053843;28;20074;-44
2021/04/19 03:38:01;;;;;;;16.85;10.07;;;5.80;99.90;;;5.27;81.67;100583.78;5077592;28;20066;-43
2021/04/19 03:40:34;;;;;;;14.32;9.23;;;5.90;99.90;;;5.13;82.31;100580.56;5053066;28;20036;-40
2021/04/19 03:43:13;;;;;;;15.05;9.13;;;5.80;99.90;;;5.05;83.27;100591.41;5052276;28;20040;-42
2021/04/19 03:45:41;;;;;;;12.90;8.82;;;5.70;99.90;;;4.96;83.29;100592.03;5077107;28;20040;-48
2021/04/19 03:48:16;;;;;;;15.23;9.88;;;5.60;99.90;;;4.95;83.36;100591.22;5052906;28;20035;-46
2021/04/19 03:51:06;;;;;;;14.10;9.43;;;5.60;99.90;;;4.96;83.86;100600.59;5057835;28;20407;-44
2021/04/19 03:53:35;;;;;;;13.88;9.40;;;5.50;99.90;;;4.94;83.38;100586.97;5074285;28;20041;-45
2021/04/19 03:56:02;;;;;;;15.27;9.48;;;5.50;99.90;;;4.90;83.54;100585.53;5057070;28;20040;-49
2021/04/19 03:58:31;;;;;;;11.77;8.57;;;5.50;99.90;;;4.89;83.58;100593.38;5048763;28;20677;-45
2021/04/19 04:00:59;;;;;;;13.70;8.77;;;5.50;99.90;;;4.89;83.20;100589.03;5067208;28;20040;-42
2021/04/19 04:03:27;;;;;;;12.80;8.50;;;5.50;99.90;;;4.92;83.13;100595.75;5056102;28;20078;-42
2021/04/19 04:05:54;;;;;;;13.52;9.25;;;5.50;99.90;;;4.89;83.81;100593.38;5057997;28;20463;-44
2021/04/19 04:08:21;;;;;;;15.35;9.90;;;5.50;99.90;;;4.83;84.04;100586.88;5055895;28;20075;-45
2021/04/19 04:10:48;;;;;;;14.48;9.48;;;5.40;99.90;;;4.83;84.04;100592.03;5056423;28;20127;-46
2021/04/19 04:13:14;;;;;;;13.30;9.65;;;5.40;99.90;;;4.82;83.78;100595.56;5055792;28;20086;-43
2021/04/19 04:15:57;;;;;;;14.00;9.02;;;5.40;99.90;;;4.86;84.54;100602.16;5055872;28;20040;-42
2021/04/19 04:18:23;;;;;;;14.27;9.02;;;5.50;99.90;;;4.88;84.30;100596.91;5067656;28;20420;-47
2021/04/19 04:20:50;;;;;;;14.57;9.63;;;5.50;99.90;;;4.92;83.74;100600.91;5073344;28;20038;-46
2021/04/19 04:23:17;;;;;;;12.38;9.75;;;5.50;99.90;;;4.87;84.15;100601.22;5073561;28;20044;-46
2021/04/19 04:25:45;;;;;;;16.35;10.25;;;5.50;99.90;;;4.89;84.06;100599.38;5074424;28;20067;-43
2021/04/19 04:28:12;;;;;;;14.20;9.52;;;5.50;99.90;;;4.92;84.99;100596.59;5077532;28;20043;-45
2021/04/19 04:30:39;;;;;;;14.65;9.30;;;5.50;99.90;;;5.05;84.12;100604.31;5077645;28;20530;-46
2021/04/19 04:33:07;;;;;;;14.48;9.55;;;5.60;99.90;;;5.14;84.04;100598.53;5072160;28;20025;-48
2021/04/19 04:35:35;;;;;;;15.13;9.27;;;5.70;99.90;;;5.26;83.30;100602.81;5081414;28;20499;-48
2021/04/19 04:38:02;;;;;;;11.75;8.98;;;5.80;99.90;;;5.39;82.97;100604.53;5074169;28;20174;-43
2021/04/19 04:40:30;;;;;;;16.67;9.68;;;6.00;99.90;;;5.56;82.23;100612.75;5074986;28;20166;-45
2021/04/19 04:43:06;;;;;;;14.65;8.80;;;6.10;99.90;;;5.68;82.05;100606.69;5073374;28;20037;-45
2021/04/19 04:45:34;;;;;;;15.05;8.45;;;6.30;99.90;;;5.79;81.62;100607.69;5081732;28;20091;-40
2021/04/19 04:48:07;;;;;;;14.88;9.30;;;6.40;99.90;;;5.92;81.03;100618.84;5062071;28;20365;-43
2021/04/19 04:50:45;;;;;;;13.70;9.15;;;6.60;99.90;;;6.11;80.70;100610.59;5060202;28;20067;-49
2021/04/19 04:53:33;;;;;;;16.63;10.07;;;6.70;99.90;;;6.31;80.69;100610.75;5062631;28;20043;-45
2021/04/19 04:56:01;;;;;;;14.65;10.02;;;7.00;99.90;;;6.50;79.37;100612.78;5076544;28;20086;-47
2021/04/19 04:58:28;;;;;;;14.70;9.70;;;7.20;99.90;;;6.77;78.68;100617.66;5073094;28;20122;-46
2021/04/19 05:00:56;;;;;;;17.52;10.23;;;7.40;99.90;;;7.19;76.92;100608.34;5085289;28;20502;-42
2021/04/19 05:03:25;;;;;;;15.18;9.45;;;8.00;99.90;;;7.50;75.67;100611.97;5076430;28;20501;-46
2021/04/19 05:05:52;;;;;;;16.75;10.15;;;8.30;99.90;;;7.87;74.53;100620.22;5067109;28;20056;-43
2021/04/19 05:08:19;;;;;;;14.70;10.15;;;8.70;99.90;;;7.80;74.75;100611.28;5056306;28;20039;-47
2021/04/19 05:10:45;;;;;;;14.60;9.45;;;8.70;99.90;;;8.31;73.87;100614.00;5051224;28;20044;-44
2021/04/19 05:13:17;;;;;;;13.70;9.43;;;9.30;99.90;;;8.91;71.82;100612.44;5059426;28;20138;-42
2021/04/19 05:15:46;;;;;;;18.00;9.85;;;10.20;99.90;;;9.82;69.60;100618.41;5069480;28;20029;-46
2021/04/19 05:18:14;;;;;;;12.48;9.27;;;11.20;99.90;;;9.97;67.44;100610.06;5059136;28;20027;-47
2021/04/19 05:20:41;;;;;;;13.00;8.85;;;11.90;99.90;;;9.94;68.42;100617.31;5080471;28;20031;-44
2021/04/19 05:23:07;;;;;;;12.82;9.07;;;12.00;99.70;;;10.04;66.33;100617.31;5080590;28;20028;-43
2021/04/19 05:25:34;;;;;;;14.70;10.35;;;12.20;97.00;;;9.46;69.26;100618.06;5077286;28;20033;-46
2021/04/19 05:28:01;;;;;;;13.90;9.57;;;11.50;99.10;;;9.41;68.65;100619.47;5070109;28;20521;-48
2021/04/19 05:30:31;;;;;;;16.42;10.43;;;11.10;99.90;;;9.03;69.80;100620.94;5076338;28;20056;-45
2021/04/19 05:33:03;;;;;;;13.23;9.23;;;10.50;99.90;;;8.91;69.96;100622.03;5075837;28;20115;-47
2021/04/19 05:35:31;;;;;;;14.50;9.57;;;10.10;99.90;;;8.80;69.86;100628.13;5077104;28;20351;-45
2021/04/19 05:37:58;;;;;;;13.07;9.32;;;9.80;99.90;;;8.71;70.25;100631.47;5082330;28;20031;-49
2021/04/19 05:40:30;;;;;;;13.00;9.00;;;9.70;99.90;;;8.73;69.90;100632.19;5078302;28;20082;-52
2021/04/19 05:43:01;;;;;;;11.45;9.02;;;9.50;99.90;;;8.74;69.75;100633.81;5080446;28;20032;-44
2021/04/19 05:45:27;;;;;;;15.63;9.60;;;9.60;99.90;;;8.75;69.53;100632.88;5076018;28;20057;-49
2021/04/19 05:47:54;;;;;;;17.45;10.13;;;9.60;99.90;;;8.84;69.36;100624.31;5068199;28;20040;-45
2021/04/19 05:50:24;;;;;;;13.73;8.93;;;9.60;99.90;;;8.73;69.41;100632.19;5083494;28;20158;-44
2021/04/19 05:52:53;;;;;;;13.88;9.60;;;9.60;99.90;;;8.79;69.03;100631.66;5053865;28;20551;-47
2021/04/19 05:55:26;;;;;;;14.68;10.07;;;9.60;99.90;;;8.83;68.87;100633.06;5079704;28;20043;-50
2021/04/19 05:58:38;;;;;;;12.48;9.10;;;9.70;99.90;;;8.94;68.79;100632.97;5067578;28;20032;-50
2021/04/19 06:01:15;;;;;;;14.90;9.63;;;9.80;99.90;;;9.32;68.07;100631.47;5075547;28;20072;-43
2021/04/19 06:04:18;;;;;;;15.10;9.43;;;10.20;99.90;;;9.58;66.30;100631.78;5056223;28;20028;-47
2021/04/19 06:07:05;;;;;;;13.18;8.20;;;10.50;99.90;;;9.72;66.58;100634.00;5075718;28;20052;-47
2021/04/19 06:10:02;;;;;;;14.48;9.45;;;10.80;99.90;;;9.71;66.51;100629.78;5070574;28;20591;-46
2021/04/19 06:12:35;;;;;;;;;;;10.70;99.90;;;9.95;65.50;100630.19;5060910;28;20117;-44
2021/04/19 06:15:13;;;;;;;14.30;7.65;;;11.00;99.90;;;10.13;66.74;100632.94;5049835;28;19920;-46
2021/04/19 06:17:47;;;;;;;12.68;8.48;;;11.30;99.90;;;10.19;66.81;100629.81;5077042;28;20044;-45
2021/04/19 06:20:19;;;;;;;14.38;9.32;;;11.40;99.90;;;10.43;67.06;100623.34;5078800;28;20123;-43
2021/04/19 06:22:50;;;;;;;10.60;8.52;;;11.80;99.90;;;10.49;64.96;100630.59;5069218;28;20553;-45
2021/04/19 06:25:18;;;;;;;14.23;9.60;;;11.80;99.30;;;10.85;63.38;100629.00;5074120;28;20625;-46
2021/04/19 06:27:44;;;;;;;13.77;8.80;;;12.10;98.30;;;11.01;63.22;100628.38;5076826;28;20028;-45
2021/04/19 06:30:20;;;;;;;12.57;8.43;;;12.20;97.60;;;11.03;61.75;100623.84;5046641;28;747348;-46
2021/04/19 06:32:47;;;;;;;;;;;12.50;96.30;;;11.14;60.13;100628.88;5075943;28;20048;-46
2021/04/19 06:35:17;;;;;;;11.32;7.38;;;12.60;94.30;;;11.22;61.96;100631.59;5077159;28;20283;-47
2021/04/19 06:37:54;;;;;;;12.98;9.10;;;12.60;94.80;;;11.56;60.49;100635.25;5077965;28;20044;-47
2021/04/19 06:40:21;;;;;;;13.85;8.93;;;12.70;94.60;;;11.69;59.69;100631.47;5075867;28;20115;-47
2021/04/19 06:42:47;;;;;;;13.65;8.05;;;12.90;92.50;;;11.86;59.64;100628.88;5075077;28;20074;-48
2021/04/19 06:45:15;;;;;;;13.75;8.15;;;13.10;92.50;;;12.05;58.80;100638.38;5053793;28;20384;-50
2021/04/19 06:47:42;;;;;;;11.98;8.95;;;13.40;91.10;;;12.22;57.51;100631.50;5076204;28;20399;-51
2021/04/19 06:50:11;;;;;;;19.50;9.85;;;13.60;89.50;;;12.39;57.24;100632.44;5070143;28;20019;-43
2021/04/19 06:52:39;;;;;;;10.60;8.20;;;13.90;86.70;;;12.87;56.21;100630.13;5053304;28;20446;-45
2021/04/19 06:55:06;;;;;;;11.57;8.20;;;14.30;84.80;;;13.03;55.09;100626.78;5075566;28;20029;-41
2021/04/19 06:57:40;;;;;;;9.65;7.15;;;14.50;81.00;;;13.05;54.71;100619.59;5072977;28;20368;-43
2021/04/19 07:00:08;;;;;;;11.45;6.60;;;14.20;81.40;;;12.36;56.70;100625.72;5075402;28;20032;-46
2021/04/19 07:02:46;;;;;;;7.68;6.55;;;13.80;82.90;;;12.28;56.23;100618.66;5074126;28;20047;-43
2021/04/19 07:05:15;;;;;;;9.60;7.22;;;13.50;82.60;;;12.65;55.55;100617.59;5034706;28;20043;-50
2021/04/19 07:08:10;;;;;;;12.85;7.70;;;13.50;83.60;;;12.57;54.77;100614.94;5074484;28;20059;-47
2021/04/19 07:10:37;;;;;;;11.77;7.82;;;13.60;83.70;;;12.26;56.40;100619.78;5048453;28;20139;-44
2021/04/19 07:13:11;;;;;;;10.73;7.80;;;13.40;84.00;;;12.21;56.04;100617.63;5057726;28;20405;-43
2021/04/19 07:15:42;;;;;;;13.20;7.63;;;13.20;84.00;;;12.14;56.28;100621.81;5054118;28;20451;-44
2021/04/19 07:18:08;;;;;;;10.10;7.25;;;13.10;84.50;;;12.08;56.76;100606.72;5067051;28;20040;-43
2021/04/19 07:20:35;;;;;;;11.75;7.72;;;13.00;85.60;;;12.57;55.00;100607.91;5071349;28;20039;-47
2021/04/19 07:23:02;;;;;;;12.52;6.97;;;13.10;84.80;;;12.71;54.73;100605.72;5069791;28;20403;-46
2021/04/19 07:25:29;;;;;;;9.25;6.95;;;13.30;84.00;;;12.92;54.26;100606.13;5076048;28;20128;-44
2021/04/19 07:27:58;;;;;;;9.88;7.28;;;13.60;83.00;;;13.01;53.85;100604.38;5077433;28;20028;-42
2021/04/19 07:30:24;;;;;;;9.10;6.93;;;13.80;80.90;;;13.25;53.62;100607.91;5085029;28;20070;-47
2021/04/19 07:32:50;;;;;;;10.10;6.70;;;13.90;81.70;;;13.17;53.61;100609.72;5073286;28;20709;-44
2021/04/19 07:35:23;;;;;;;12.73;8.52;;;14.10;80.30;;;13.53;52.81;100602.47;5076841;28;20028;-48
2021/04/19 07:38:03;;;;;;;8.98;6.40;;;14.20;79.60;;;13.70;50.69;100601.53;5061967;28;20119;-46
2021/04/19 07:40:44;;;;;;;11.32;6.90;;;14.40;77.60;;;13.54;52.14;100604.09;5074947;28;20032;-44
2021/04/19 07:43:23;;;;;;;11.25;8.35;;;14.40;78.20;;;13.65;52.17;100592.50;5067168;28;20333;-41
2021/04/19 07:46:09;;;;;;;12.48;8.20;;;14.40;77.60;;;13.90;51.24;100589.75;5082391;28;20032;-40
2021/04/19 07:48:49;;;;;;;11.98;8.65;;;14.70;76.70;;;14.26;50.85;100594.63;5067792;28;20032;-48
2021/04/19 07:51:34;;;;;;;8.98;6.65;;;14.90;76.60;;;14.24;49.78;100594.78;5069375;28;20114;-50
2021/04/19 07:54:18;;;;;;;7.50;6.00;;;15.00;74.40;;;14.14;49.96;100595.97;5073564;28;20064;-48
2021/04/19 07:57:07;;;;;;;11.77;6.28;;;15.00;73.90;;;14.02;50.38;100592.84;5067047;28;20468;-47
2021/04/19 07:59:37;;;;;;;11.98;6.13;;;15.00;73.20;;;14.37;50.85;100585.63;5066661;28;20036;-49
2021/04/19 08:02:06;;;;;;;9.43;6.57;;;15.20;74.60;;;14.83;50.04;100584.06;5065439;28;20360;-47
2021/04/19 08:04:34;;;;;;;6.93;4.82;;;15.50;73.80;;;14.94;49.79;100581.91;5069190;28;20478;-46
2021/04/19 08:07:00;;;;;;;6.30;5.13;;;15.80;73.40;;;15.20;49.29;100583.41;5070378;28;20052;-45
2021/04/19 08:09:32;;;;;;;7.50;5.57;;;16.00;72.60;;;15.24;48.54;100580.28;5068778;28;20514;-47
2021/04/19 08:12:08;;;;;;;6.40;4.78;;;16.10;70.90;;;15.94;47.02;100579.38;5074699;28;20089;-47
2021/04/19 08:14:50;;;;;;;7.10;4.97;;;16.50;70.40;;;15.74;45.16;100570.31;5078520;28;20064;-49
2021/04/19 08:17:16;;;;;;;6.35;5.40;;;16.70;67.80;;;15.56;47.68;100568.81;5080567;28;20055;-49
2021/04/19 08:19:42;;;;;;;6.50;4.70;;;16.30;69.40;;;16.21;46.54;100565.66;5068385;28;20050;-50
2021/04/19 08:22:17;;;;;;;5.95;5.20;;;16.70;68.70;;;16.17;45.29;100571.44;5060523;28;20051;-48
2021/04/19 08:24:45;;;;;;;5.90;4.88;;;16.90;66.60;;;16.38;46.29;100565.50;5051344;28;20059;-52
2021/04/19 08:27:25;;;;;;;6.13;4.93;;;16.90;67.70;;;16.73;45.37;100569.25;5067779;28;20036;-51
2021/04/19 08:29:51;;;;;;;8.00;5.28;;;17.30;67.30;;;16.66;46.34;100563.91;5067577;28;20029;-48
2021/04/19 08:32:22;;;;;;;6.95;5.85;;;17.30;67.10;;;16.32;46.31;100564.41;5033906;28;20501;-52
2021/04/19 08:34:50;;;;;;;10.48;5.65;;;17.10;67.00;;;16.18;47.05;100573.06;5030423;28;20053;-52
2021/04/19 08:37:22;;;;;;;7.47;5.93;;;17.00;67.60;;;15.99;46.97;100571.78;5042796;28;20116;-48
2021/04/19 08:39:49;;;;;;;7.13;5.22;;;16.90;66.90;;;16.03;47.56;100567.81;5044728;28;20067;-48
2021/04/19 08:42:15;;;;;;;8.15;5.28;;;16.80;67.50;;;15.97;47.06;100565.88;5068419;28;20033;-48
2021/04/19 08:44:43;;;;;;;6.63;4.95;;;16.70;67.30;;;16.04;47.08;100564.19;5053987;28;20041;-47
2021/04/19 08:47:11;;;;;;;4.13;3.72;;;16.80;66.90;;;15.85;46.54;100564.66;5067939;28;20021;-46
2021/04/19 08:49:37;;;;;;;5.28;4.10;;;16.80;64.40;;;15.81;45.96;100555.50;5051060;28;20051;-48
2021/04/19 08:52:03;;;;;;;6.43;5.40;;;16.60;64.50;;;15.73;46.74;100558.19;5051702;28;20029;-49
2021/04/19 08:54:29;;;;;;;6.88;4.88;;;16.50;65.90;;;15.97;46.78;100557.19;5050880;28;20047;-47
2021/04/19 08:56:55;;;;;;;5.43;4.35;;;16.70;66.40;;;16.32;46.37;100550.44;5055240;28;20412;-45
2021/04/19 08:59:23;;;;;;;10.20;4.53;;;17.00;66.30;;;16.36;45.96;100556.97;5063014;28;20053;-46
2021/04/19 09:01:52;;;;;;;6.18;4.60;;;17.10;65.70;;;16.62;45.37;100554.69;5053400;28;20104;-50
2021/04/19 09:04:22;;;;;;;6.40;4.47;;;17.40;65.10;;;16.97;44.32;100553.19;5053294;28;20170;-48
2021/04/19 09:06:51;;;;;;;8.00;4.93;;;17.60;64.30;;;17.25;44.16;100550.66;5038291;28;20025;-47
2021/04/19 09:09:32;;;;;;;8.00;4.57;;;17.90;63.50;;;17.66;42.90;100544.81;5063678;28;20516;-50
2021/04/19 09:12:10;;;;;;;5.30;4.80;;;18.20;62.50;;;17.81;42.76;100542.94;5058022;28;20438;-46
2021/04/19 09:14:43;;;;;;;6.43;5.55;;;18.40;61.50;;;17.83;42.55;100540.94;5056570;28;20152;-49
2021/04/19 09:17:10;;;;;;;6.22;5.15;;;18.60;61.00;;;18.01;42.38;100538.63;5053447;28;20036;-48
2021/04/19 09:19:38;;;;;;;5.28;4.50;;;18.60;61.40;;;18.30;41.57;100539.47;5052109;28;20029;-45
2021/04/19 09:22:10;;;;;;;5.25;4.05;;;18.90;60.30;;;18.61;40.48;100542.50;5056689;28;20048;-45
2021/04/19 09:25:06;;;;;;;5.97;4.53;;;19.10;59.40;;;18.02;39.27;100537.63;5048262;28;20028;-46
2021/04/19 09:27:49;;;;;;;4.68;3.58;;;18.80;57.40;;;18.17;40.52;100534.91;5048338;28;20068;-47
2021/04/19 09:30:32;;;;;;;6.70;4.72;;;18.90;59.00;;;18.21;39.55;100528.25;5051942;28;20029;-45
2021/04/19 09:33:03;;;;;;;8.18;4.85;;;18.90;57.40;;;17.66;42.03;100527.19;5070052;28;20449;-48
2021/04/19 09:35:46;;;;;;;6.30;4.25;;;18.50;59.40;;;17.53;40.59;100529.66;5069857;28;20041;-50
2021/04/19 09:38:49;;;;;;;6.63;4.50;;;18.30;58.90;;;17.50;42.18;100528.22;5060151;28;20094;-50
2021/04/19 09:41:17;;;;;;;5.15;4.38;;;18.20;59.90;;;17.48;42.57;100535.53;5065749;28;20093;-48
2021/04/19 09:43:57;;;;;;;5.55;4.22;;;18.20;59.80;;;17.45;42.40;100525.38;5061097;28;20028;-48
2021/04/19 09:46:31;;;;;;;5.30;4.05;;;18.20;60.20;;;17.02;41.77;100518.38;5068331;28;20049;-50
2021/04/19 09:49:02;;;;;;;4.20;3.53;;;17.90;58.90;;;16.39;43.66;100527.69;5068934;28;20487;-47
2021/04/19 09:51:43;;;;;;;5.25;4.03;;;17.40;60.00;;;16.55;42.16;100522.22;5073135;28;20040;-49
2021/04/19 09:54:11;;;;;;;4.97;3.90;;;17.30;58.90;;;16.60;42.92;100525.94;5088358;28;20036;-46
2021/04/19 09:56:48;;;;;;;3.42;3.13;;;17.30;59.70;;;16.58;41.83;100513.97;5093670;28;20040;-45
2021/04/19 09:59:24;;;;;;;3.58;3.20;;;17.20;59.10;;;16.85;42.37;100513.34;5089858;28;20038;-50
2021/04/19 10:01:53;;;;;;;3.50;3.20;;;17.40;60.00;;;17.61;41.46;100508.47;5089030;28;20059;-47
2021/04/19 10:04:20;;;;;;;3.85;3.47;;;17.90;59.80;;;18.02;40.85;100506.00;5088573;28;20036;-52
2021/04/19 10:06:53;;;;;;;4.82;2.67;;;18.40;58.90;;;18.39;39.01;100506.66;5087003;28;20152;-48
2021/04/19 10:09:28;;;;;;;3.10;2.80;;;18.80;57.30;;;18.26;39.46;100490.75;5082009;28;20028;-46
2021/04/19 10:12:07;;;;;;;3.72;2.55;;;18.80;57.20;;;18.29;38.26;100496.44;5087891;28;20032;-48
2021/04/19 10:14:38;;;;;;;3.60;2.83;;;18.80;55.80;;;18.54;38.43;100488.84;5094042;28;20089;-48
2021/04/19 10:17:18;;;;;;;3.47;2.47;;;19.10;54.70;;;18.49;36.18;100480.72;5089825;28;20040;-50
2021/04/19 10:19:44;;;;;;;2.55;1.92;;;19.00;53.10;;;17.94;38.25;100484.25;5088423;28;20040;-45
2021/04/19 10:22:12;;;;;;;1.92;1.80;;;18.60;53.80;;;17.74;38.12;100486.72;5089438;28;20048;-46
2021/04/19 10:24:56;;;;;;;1.65;1.25;;;18.30;53.90;;;18.53;36.81;100477.50;5088206;28;20081;-49
2021/04/19 10:27:31;;;;;;;3.60;1.73;;;18.90;53.50;;;19.15;35.44;100471.22;5088208;28;20103;-49
2021/04/19 10:30:19;;;;;;;2.92;1.20;;;19.50;53.10;;;19.36;35.42;100478.19;5088644;28;20386;-47
2021/04/19 10:32:45;;;;;;;1.95;1.30;;;19.80;52.30;;;19.28;35.36;100470.44;5051017;28;20407;-48
2021/04/19 10:35:35;;;;;;;1.80;1.23;;;19.90;51.30;;;18.76;33.65;100461.38;5056757;28;20075;-50